Strona główna
METAR-TAF:

METAR-TAF

Lotnisko :

Port lotniczy Sliač

Bańska Bystrzyca, Słowacja

Szerokość geograficzna: 48-38-17N, Długość geograficzna: 019-08-03E, wysokość: 318 m

Aktualna obserwacja pogody

Raport powstał 37 minut temu, godzina 04:30 UTC
Temperatura -2°C
Wilgotność 86%
Ciśnienie 1024 hPa
Widzialność 10 km lub więcej
Brak chmur poniżej 1500 m i brak chmur cumulonimbus

METAR: LZSL 090430Z /////KT CAVOK M02/M04 Q1024

czas: 07:07 (05:07 UTC)

Prognoza

Raport powstał 3 godziny i 7 minut temu, godzina 02:00 UTC
Prognoza ważna od 09 godzina 03 UTC do 09 godzina 12 UTC
Wiatr 2 kt z kierunków zmiennych
Widzialność 10 km lub więcej
Brak chmur poniżej 1500 m i brak chmur cumulonimbus
Stopniowe zmiany
od 09 godzina 10 UTC do 09 godzina 12 UTC
Wiatr 9 kt od zachodnio-południowy zachód

TAF: LZSL 090200Z 0903/0912 VRB02KT CAVOK BECMG 0910/0912 25009KT

Obserwacja i prognoza pogody dla ponad 4000 lotnisk (raport METAR i TAF).

Dostępne stacje oznaczono żółtymi i czerwonymi punktami na mapie.

Najedź kursorem aby zobaczyć nazwę stacji.

Kliknij aby zobaczyć obserwacje i prognozy pogody.

Aby zmienić mapę: kliknij na zielony przycisk z czarnym krzyżykiem, aby powiększyć; na zielony przycisk z myślnikiem, aby pomniejszyć; na zielone strzałki, aby przejść do map sąsiednich.


METAR-TAF: